Terminal Aerodrome Forecast
Issued by NWS Grand Forks, ND

Home | Current Version | Previous Version | Graphics & Text | Print | Product List | Glossary On
Versions: 1 2 3 4 5 6 7 8 9 10 11 12 13 14 15 16 17
000
FTUS43 KFGF 211500 AAA
TAFFAR
TAF AMD
KFAR 211503Z 2115/2212 15014G24KT P6SM SKC
     FM211800 16024G34KT P6SM SKC
     FM220600 16017G25KT P6SM BKN120=

USA.gov is the U.S. government's official web portal to all federal, state and local government web resources and services.